createdAt,value
2018-12-08T00:00:57.656Z,99738.12
2018-12-08T00:03:29.216Z,99746.05
2018-12-08T00:06:00.391Z,99751.03
2018-12-08T00:08:33.749Z,99745.78
2018-12-08T00:11:05.267Z,99762.30
2018-12-08T00:13:39.468Z,99759.34
2018-12-08T00:16:10.796Z,99762.46
2018-12-08T00:21:43.640Z,99760.97
2018-12-08T00:24:14.479Z,99768.08
2018-12-08T00:26:45.522Z,99769.98
2018-12-08T00:29:17.203Z,99767.51
2018-12-08T00:31:48.142Z,99757.17
2018-12-08T00:34:18.959Z,99761.73
2018-12-08T00:36:49.980Z,99752.36
2018-12-08T00:39:21.679Z,99761.70
2018-12-08T00:41:55.280Z,99746.20
2018-12-08T00:44:29.047Z,99755.61
2018-12-08T00:47:00.175Z,99748.77
2018-12-08T00:49:31.891Z,99755.27
2018-12-08T00:52:03.931Z,99750.37
2018-12-08T00:57:39.303Z,99756.95
2018-12-08T01:00:12.926Z,99753.42
2018-12-08T01:02:46.728Z,99758.84
2018-12-08T01:05:18.164Z,99764.19
2018-12-08T01:07:50.032Z,99760.59
2018-12-08T01:10:20.784Z,99761.48
2018-12-08T01:12:51.875Z,99765.73
2018-12-08T01:15:23.619Z,99765.93
2018-12-08T01:17:55.139Z,99769.41
2018-12-08T01:20:26.060Z,99776.15
2018-12-08T01:22:56.915Z,99778.16
2018-12-08T01:25:27.732Z,99761.86
2018-12-08T01:31:02.447Z,99767.82
2018-12-08T01:33:33.256Z,99775.44
2018-12-08T01:36:05.187Z,99783.14
2018-12-08T01:38:36.827Z,99774.77
2018-12-08T01:44:10.510Z,99774.88
2018-12-08T01:46:43.948Z,99784.00
2018-12-08T01:49:17.625Z,99786.66
2018-12-08T01:51:48.838Z,99788.31
2018-12-08T01:54:19.790Z,99796.91
2018-12-08T01:56:50.703Z,99799.30
2018-12-08T01:59:22.383Z,99809.19
2018-12-08T02:01:53.511Z,99803.61
2018-12-08T02:04:26.859Z,99801.09
2018-12-08T02:06:58.235Z,99797.94
2018-12-08T02:09:27.947Z,99801.39
2018-12-08T02:11:58.861Z,99797.07
2018-12-08T02:14:30.656Z,99809.16
2018-12-08T02:17:02.456Z,99807.45
2018-12-08T02:19:34.269Z,99818.43
2018-12-08T02:22:05.343Z,99828.91
2018-12-08T02:24:37.120Z,99819.36
2018-12-08T02:27:08.199Z,99807.52
2018-12-08T02:29:39.050Z,99817.07
2018-12-08T02:32:10.020Z,99810.75
2018-12-08T02:34:41.007Z,99814.05
2018-12-08T02:37:12.195Z,99810.02
2018-12-08T02:39:43.715Z,99817.41
2018-12-08T02:42:15.726Z,99834.83
2018-12-08T02:44:49.768Z,99831.08
2018-12-08T02:47:18.922Z,99824.49
2018-12-08T02:49:49.798Z,99830.78
2018-12-08T02:52:21.615Z,99833.63
2018-12-08T02:54:51.442Z,99837.05
2018-12-08T02:57:23.184Z,99837.79
2018-12-08T02:59:54.826Z,99836.40
2018-12-08T03:02:26.436Z,99836.81
2018-12-08T03:04:59.862Z,99843.78
2018-12-08T03:07:34.274Z,99847.00
2018-12-08T03:10:06.271Z,99841.59
2018-12-08T03:12:37.742Z,99849.42
2018-12-08T03:15:11.339Z,99843.36
2018-12-08T03:17:42.476Z,99843.42
2018-12-08T03:20:13.526Z,99839.38
2018-12-08T03:22:45.135Z,99841.00
2018-12-08T03:25:15.967Z,99837.14
2018-12-08T03:27:46.852Z,99831.62
2018-12-08T03:30:18.517Z,99831.41
2018-12-08T03:32:50.276Z,99828.22
2018-12-08T03:35:21.324Z,99830.34
2018-12-08T03:37:53.058Z,99826.86
2018-12-08T03:40:24.705Z,99819.80
2018-12-08T03:42:55.633Z,99817.76
2018-12-08T03:45:26.446Z,99826.71
2018-12-08T03:47:56.159Z,99818.61
2018-12-08T03:50:27.315Z,99821.92
2018-12-08T03:52:58.182Z,99830.42
2018-12-08T04:00:29.282Z,99822.60
2018-12-08T04:03:00.923Z,99837.30
2018-12-08T04:05:31.847Z,99841.45
2018-12-08T04:08:03.592Z,99849.99
2018-12-08T04:10:34.552Z,99864.04
2018-12-08T04:13:05.327Z,99860.31
2018-12-08T04:15:38.770Z,99848.85
2018-12-08T04:18:10.087Z,99844.26
2018-12-08T04:20:41.296Z,99850.97
2018-12-08T04:23:12.064Z,99848.80
2018-12-08T04:25:41.683Z,99842.08
2018-12-08T04:28:15.028Z,99843.37
2018-12-08T04:30:46.487Z,99851.29
2018-12-08T04:33:17.497Z,99848.19
2018-12-08T04:35:49.305Z,99846.91
2018-12-08T04:38:21.062Z,99858.75
2018-12-08T04:40:52.150Z,99851.50
2018-12-08T04:43:23.582Z,99851.80
2018-12-08T04:45:55.399Z,99853.23
2018-12-08T04:48:27.199Z,99844.42
2018-12-08T04:50:56.882Z,99836.03
2018-12-08T04:53:32.959Z,99833.91
2018-12-08T04:56:04.947Z,99839.81
2018-12-08T04:58:36.461Z,99826.31
2018-12-08T05:03:37.023Z,99834.07
2018-12-08T05:06:07.859Z,99834.81
2018-12-08T05:08:38.688Z,99814.39
2018-12-08T05:11:10.503Z,99828.50
2018-12-08T05:13:42.155Z,99821.08
2018-12-08T05:16:13.907Z,99823.28
2018-12-08T05:18:44.903Z,99832.17
2018-12-08T05:21:16.662Z,99831.20
2018-12-08T05:23:47.568Z,99832.67
2018-12-08T05:26:18.552Z,99827.72
2018-12-08T05:28:49.458Z,99831.70
2018-12-08T05:31:20.297Z,99828.69
2018-12-08T05:33:51.299Z,99839.91
2018-12-08T05:36:23.201Z,99831.94
2018-12-08T05:38:54.827Z,99829.42
2018-12-08T05:41:26.659Z,99818.41
2018-12-08T05:43:58.151Z,99825.73
2018-12-08T05:46:29.160Z,99826.00
2018-12-08T05:49:00.009Z,99834.56
2018-12-08T05:51:30.827Z,99830.41
2018-12-08T05:54:01.770Z,99835.69
2018-12-08T05:56:32.619Z,99827.74
2018-12-08T05:59:03.902Z,99830.31
2018-12-08T06:01:33.648Z,99829.78
2018-12-08T06:04:05.534Z,99830.45
2018-12-08T06:06:37.294Z,99831.55
2018-12-08T06:09:09.022Z,99825.55
2018-12-08T06:11:39.806Z,99835.63
2018-12-08T06:14:10.842Z,99832.31
2018-12-08T06:16:42.652Z,99810.66
2018-12-08T06:19:13.600Z,99822.79
2018-12-08T06:21:44.662Z,99819.54
2018-12-08T06:24:15.456Z,99816.48
2018-12-08T06:27:05.859Z,99812.06
2018-12-08T06:29:37.100Z,99808.52
2018-12-08T06:32:08.122Z,99804.98
2018-12-08T06:34:38.935Z,99793.48
2018-12-08T06:37:09.748Z,99799.78
2018-12-08T06:39:41.308Z,99800.61
2018-12-08T06:42:12.155Z,99796.54
2018-12-08T06:44:43.091Z,99799.06
2018-12-08T06:47:13.809Z,99798.91
2018-12-08T06:49:44.587Z,99795.75
2018-12-08T06:52:18.116Z,99803.22
2018-12-08T06:54:49.593Z,99794.84
2018-12-08T06:57:21.367Z,99804.05
2018-12-08T06:59:52.287Z,99809.73
2018-12-08T07:02:23.271Z,99807.69
2018-12-08T07:04:55.188Z,99811.53
2018-12-08T07:07:26.671Z,99801.53
2018-12-08T07:09:58.275Z,99808.77
2018-12-08T07:12:29.295Z,99794.74
2018-12-08T07:15:00.187Z,99787.60
2018-12-08T07:17:31.023Z,99798.72
2018-12-08T07:20:02.471Z,99784.54
2018-12-08T07:22:34.129Z,99764.28
2018-12-08T07:25:05.444Z,99770.73
2018-12-08T07:27:39.703Z,99772.15
2018-12-08T07:30:11.375Z,99778.47
2018-12-08T07:32:42.973Z,99770.30
2018-12-08T07:35:14.528Z,99768.95
2018-12-08T07:37:45.632Z,99773.37
2018-12-08T07:40:17.457Z,99766.97
2018-12-08T07:42:48.998Z,99781.44
2018-12-08T07:45:20.175Z,99775.91
2018-12-08T07:47:51.927Z,99770.80
2018-12-08T07:50:23.800Z,99778.95
2018-12-08T07:52:54.745Z,99777.02
2018-12-08T07:55:25.554Z,99788.48
2018-12-08T07:57:56.486Z,99782.36
2018-12-08T08:00:27.615Z,99780.42
2018-12-08T08:02:57.415Z,99778.38
2018-12-08T08:05:28.470Z,99783.44
2018-12-08T08:08:00.096Z,99763.29
2018-12-08T08:10:30.927Z,99769.40
2018-12-08T08:13:00.677Z,99769.26
2018-12-08T08:15:31.731Z,99766.53
2018-12-08T08:18:03.401Z,99767.80
2018-12-08T08:20:35.123Z,99761.59
2018-12-08T08:23:06.436Z,99761.44
2018-12-08T08:25:37.875Z,99761.54
2018-12-08T08:28:11.295Z,99760.33
2018-12-08T08:30:42.558Z,99750.81
2018-12-08T08:33:14.164Z,99756.26
2018-12-08T08:35:45.971Z,99753.92
2018-12-08T08:38:16.952Z,99755.58
2018-12-08T08:40:48.780Z,99754.50
2018-12-08T08:43:22.154Z,99758.39
2018-12-08T08:45:53.403Z,99752.42
2018-12-08T08:48:24.259Z,99741.88
2018-12-08T08:50:55.335Z,99742.95
2018-12-08T08:53:31.799Z,99743.44
2018-12-08T08:56:03.780Z,99730.87
2018-12-08T08:58:34.691Z,99732.23
2018-12-08T09:01:08.042Z,99731.41
2018-12-08T09:03:39.151Z,99720.83
2018-12-08T09:06:10.273Z,99703.67
2018-12-08T09:08:39.974Z,99727.70
2018-12-08T09:11:11.636Z,99722.41
2018-12-08T09:13:43.453Z,99722.99
2018-12-08T09:19:18.591Z,99711.80
2018-12-08T09:21:50.219Z,99719.66
2018-12-08T09:24:21.843Z,99722.08
2018-12-08T09:26:52.791Z,99716.00
2018-12-08T09:29:24.511Z,99737.33
2018-12-08T09:31:57.640Z,99745.27
2018-12-08T09:34:27.112Z,99729.47
2018-12-08T09:36:57.977Z,99739.22
2018-12-08T09:39:28.971Z,99740.64
2018-12-08T09:42:02.335Z,99736.27
2018-12-08T09:44:36.064Z,99730.47
2018-12-08T09:47:09.658Z,99731.12
2018-12-08T09:49:41.102Z,99726.75
2018-12-08T09:52:15.473Z,99728.64
2018-12-08T09:54:49.434Z,99731.73
2018-12-08T09:57:23.096Z,99721.50
2018-12-08T09:59:54.355Z,99722.86
2018-12-08T10:02:25.299Z,99723.44
2018-12-08T10:04:54.995Z,99720.14
2018-12-08T10:12:29.203Z,99712.17
2018-12-08T10:15:02.915Z,99714.55
2018-12-08T10:17:33.845Z,99708.20
2018-12-08T10:20:08.243Z,99709.56
2018-12-08T10:22:39.354Z,99710.06
2018-12-08T10:25:10.279Z,99703.25
2018-12-08T10:27:42.751Z,99717.66
2018-12-08T10:30:16.258Z,99705.66
2018-12-08T10:32:47.520Z,99707.29
2018-12-08T10:35:18.359Z,99698.55
2018-12-08T10:37:49.224Z,99698.11
2018-12-08T10:40:20.536Z,99701.55
2018-12-08T10:42:52.123Z,99693.92
2018-12-08T10:45:24.041Z,99716.16
2018-12-08T10:47:58.436Z,99688.56
2018-12-08T10:50:29.623Z,99685.42
2018-12-08T10:53:03.029Z,99682.01
2018-12-08T10:55:36.755Z,99680.83
2018-12-08T10:58:08.166Z,99670.81
2018-12-08T11:00:45.595Z,99672.25
2018-12-08T11:03:22.583Z,99668.30
2018-12-08T11:05:53.690Z,99666.61
2018-12-08T11:08:25.315Z,99670.41
2018-12-08T11:10:58.634Z,99660.96
2018-12-08T11:14:07.179Z,99661.38
2018-12-08T11:16:38.735Z,99672.17
2018-12-08T11:19:09.888Z,99667.22
2018-12-08T11:21:41.903Z,99662.00
2018-12-08T11:24:13.552Z,99662.53
2018-12-08T11:26:45.303Z,99659.86
2018-12-08T11:29:16.183Z,99672.83
2018-12-08T11:31:49.692Z,99662.45
2018-12-08T11:34:21.019Z,99654.83
2018-12-08T11:36:51.943Z,99662.20
2018-12-08T11:39:23.060Z,99649.22
2018-12-08T11:41:54.631Z,99654.78
2018-12-08T11:44:26.678Z,99648.92
2018-12-08T11:46:58.751Z,99657.95
2018-12-08T11:49:29.756Z,99660.42
2018-12-08T11:52:00.627Z,99661.03
2018-12-08T11:54:31.901Z,99664.38
2018-12-08T11:57:02.882Z,99667.88
2018-12-08T11:59:34.683Z,99673.61
2018-12-08T12:02:05.907Z,99676.98
2018-12-08T12:04:39.431Z,99669.15
2018-12-08T12:07:11.303Z,99669.23
2018-12-08T12:09:42.058Z,99667.36
2018-12-08T12:12:13.125Z,99648.03
2018-12-08T12:14:48.387Z,99658.93
2018-12-08T12:17:20.111Z,99653.77
2018-12-08T12:19:50.947Z,99656.06
2018-12-08T12:22:22.147Z,99648.95
2018-12-08T12:24:53.131Z,99650.28
2018-12-08T12:27:23.900Z,99644.31
2018-12-08T12:29:57.451Z,99643.36
2018-12-08T12:32:28.747Z,99644.59
2018-12-08T12:34:59.644Z,99633.19
2018-12-08T12:37:31.221Z,99633.25
2018-12-08T12:40:03.676Z,99647.42
2018-12-08T12:42:34.899Z,99627.80
2018-12-08T12:45:06.194Z,99636.02
2018-12-08T12:47:37.933Z,99624.92
2018-12-08T12:50:09.390Z,99630.36
2018-12-08T12:52:41.383Z,99615.80
2018-12-08T12:55:12.974Z,99617.34
2018-12-08T12:57:42.194Z,99617.86
2018-12-08T13:00:13.619Z,99622.14
2018-12-08T13:02:45.063Z,99625.89
2018-12-08T13:05:16.022Z,99622.77
2018-12-08T13:07:49.530Z,99629.44
2018-12-08T13:10:21.111Z,99624.98
2018-12-08T13:12:52.993Z,99622.42
2018-12-08T13:15:23.826Z,99621.53
2018-12-08T13:17:55.020Z,99617.64
2018-12-08T13:20:25.995Z,99617.70
2018-12-08T13:22:57.103Z,99604.98
2018-12-08T13:25:28.370Z,99619.37
2018-12-08T13:27:59.539Z,99620.80
2018-12-08T13:30:30.636Z,99617.85
2018-12-08T13:33:01.720Z,99614.69
2018-12-08T13:35:53.187Z,99594.95
2018-12-08T13:38:23.472Z,99619.80
2018-12-08T13:40:55.115Z,99619.27
2018-12-08T13:43:25.998Z,99611.31
2018-12-08T13:45:57.013Z,99619.25
2018-12-08T13:48:29.683Z,99617.52
2018-12-08T13:51:01.239Z,99598.27
2018-12-08T13:53:36.919Z,99599.14
2018-12-08T13:56:07.454Z,99611.66
2018-12-08T13:58:38.347Z,99611.09
2018-12-08T14:01:09.503Z,99617.97
2018-12-08T14:03:42.880Z,99607.05
2018-12-08T14:06:14.243Z,99606.92
2018-12-08T14:08:48.983Z,99610.29
2018-12-08T14:11:22.843Z,99617.89
2018-12-08T14:13:54.174Z,99623.34
2018-12-08T14:16:25.137Z,99630.19
2018-12-08T14:18:56.037Z,99635.74
2018-12-08T14:21:27.863Z,99619.70
2018-12-08T14:23:59.087Z,99641.52
2018-12-08T14:26:30.183Z,99632.63
2018-12-08T14:29:01.227Z,99628.88
2018-12-08T14:31:32.403Z,99623.48
2018-12-08T14:34:04.107Z,99635.16
2018-12-08T14:36:35.049Z,99635.05
2018-12-08T14:39:08.464Z,99624.24
2018-12-08T14:41:40.065Z,99619.95
2018-12-08T14:44:10.871Z,99635.23
2018-12-08T14:46:45.134Z,99610.72
2018-12-08T14:49:16.867Z,99624.59
2018-12-08T14:51:47.799Z,99620.30
2018-12-08T14:54:18.753Z,99612.91
2018-12-08T14:56:49.655Z,99614.89
2018-12-08T14:59:20.751Z,99628.94
2018-12-08T15:01:51.837Z,99635.76
2018-12-08T15:04:22.827Z,99626.95
2018-12-08T15:06:56.692Z,99619.05
2018-12-08T15:09:27.840Z,99610.72
2018-12-08T15:11:59.143Z,99611.73
2018-12-08T15:14:32.567Z,99608.09
2018-12-08T15:17:04.303Z,99603.58
2018-12-08T15:19:35.388Z,99607.53
2018-12-08T15:22:06.323Z,99618.82
2018-12-08T15:24:37.388Z,99616.33
2018-12-08T15:27:08.631Z,99621.98
2018-12-08T15:29:40.226Z,99626.06
2018-12-08T15:32:11.294Z,99621.05
2018-12-08T15:34:42.467Z,99627.90
2018-12-08T15:37:13.674Z,99621.02
2018-12-08T15:39:44.651Z,99601.45
2018-12-08T15:42:15.604Z,99610.58
2018-12-08T15:44:46.999Z,99584.31
2018-12-08T15:47:18.371Z,99605.77
2018-12-08T15:49:48.288Z,99592.47
2018-12-08T15:52:19.332Z,99595.36
2018-12-08T15:54:50.540Z,99591.48
2018-12-08T15:57:22.231Z,99590.06
2018-12-08T15:59:53.295Z,99586.05
2018-12-08T16:02:24.548Z,99590.73
2018-12-08T16:04:55.549Z,99589.71
2018-12-08T16:07:26.764Z,99565.64
2018-12-08T16:09:57.920Z,99587.72
2018-12-08T16:12:29.016Z,99578.02
2018-12-08T16:15:00.131Z,99575.84
2018-12-08T16:17:31.143Z,99579.16
2018-12-08T16:20:02.344Z,99575.71
2018-12-08T16:22:33.211Z,99579.86
2018-12-08T16:25:04.778Z,99584.27
2018-12-08T16:27:36.437Z,99583.50
2018-12-08T16:30:08.698Z,99570.83
2018-12-08T16:32:40.118Z,99574.40
2018-12-08T16:35:12.134Z,99579.02
2018-12-08T16:37:43.155Z,99581.53
2018-12-08T16:40:16.701Z,99577.45
2018-12-08T16:42:46.386Z,99581.72
2018-12-08T16:45:18.380Z,99562.38
2018-12-08T16:47:49.399Z,99566.05
2018-12-08T16:50:20.451Z,99569.61
2018-12-08T16:52:51.552Z,99563.62
2018-12-08T16:55:22.814Z,99559.54
2018-12-08T16:57:53.991Z,99546.08
2018-12-08T17:00:25.167Z,99545.07
2018-12-08T17:02:55.999Z,99549.59
2018-12-08T17:05:29.417Z,99542.67
2018-12-08T17:08:01.215Z,99537.44
2018-12-08T17:10:32.106Z,99525.27
2018-12-08T17:13:05.574Z,99539.84
2018-12-08T17:18:08.675Z,99514.52
2018-12-08T17:20:39.864Z,99513.95
2018-12-08T17:23:10.672Z,99505.78
2018-12-08T17:25:41.978Z,99509.77
2018-12-08T17:28:12.961Z,99509.20
2018-12-08T17:30:44.103Z,99510.25
2018-12-08T17:33:14.950Z,99504.90
2018-12-08T17:35:45.970Z,99501.95
2018-12-08T17:38:19.703Z,99484.09
2018-12-08T17:40:51.232Z,99500.81
2018-12-08T17:43:22.303Z,99495.30
2018-12-08T17:45:53.426Z,99491.86
2018-12-08T17:48:25.238Z,99488.34
2018-12-08T17:51:00.690Z,99485.70
2018-12-08T17:53:32.368Z,99490.81
2018-12-08T17:56:03.622Z,99497.97
2018-12-08T17:58:35.451Z,99485.42
2018-12-08T18:01:06.433Z,99480.61
2018-12-08T18:03:36.481Z,99475.98
2018-12-08T18:06:08.268Z,99473.48
2018-12-08T18:08:39.340Z,99470.48
2018-12-08T18:11:10.446Z,99458.13
2018-12-08T18:13:41.643Z,99452.12
2018-12-08T18:21:15.967Z,99445.94
2018-12-08T18:23:46.843Z,99440.75
2018-12-08T18:26:18.002Z,99430.51
2018-12-08T18:28:49.538Z,99432.89
2018-12-08T18:31:20.705Z,99424.63
2018-12-08T18:33:52.532Z,99413.27
2018-12-08T18:36:24.278Z,99419.73
2018-12-08T18:38:57.795Z,99407.64
2018-12-08T18:41:29.610Z,99402.73
2018-12-08T18:44:01.239Z,99400.83
2018-12-08T18:46:32.548Z,99401.09
2018-12-08T18:49:04.259Z,99400.04
2018-12-08T18:51:35.295Z,99385.31
2018-12-08T18:54:06.639Z,99382.52
2018-12-08T18:56:37.817Z,99368.44
2018-12-08T18:59:11.438Z,99365.62
2018-12-08T19:01:42.756Z,99350.27
2018-12-08T19:04:14.116Z,99342.73
2018-12-08T19:06:45.967Z,99347.08
2018-12-08T19:09:17.035Z,99344.95
2018-12-08T19:11:50.856Z,99334.14
2018-12-08T19:14:22.043Z,99325.69
2018-12-08T19:16:53.235Z,99321.58
2018-12-08T19:19:26.788Z,99314.23
2018-12-08T19:24:30.288Z,99300.25
2018-12-08T19:27:01.219Z,99291.27
2018-12-08T19:29:32.313Z,99290.11
2018-12-08T19:32:03.555Z,99277.55
2018-12-08T19:34:34.570Z,99278.31
2018-12-08T19:37:05.509Z,99261.59
2018-12-08T19:39:39.219Z,99257.88
2018-12-08T19:42:10.700Z,99239.63
2018-12-08T19:44:41.833Z,99243.72
2018-12-08T19:47:13.450Z,99234.62
2018-12-08T19:49:46.897Z,99232.08
2018-12-08T19:52:18.442Z,99226.67
2018-12-08T19:54:49.531Z,99219.05
2018-12-08T19:57:20.756Z,99206.56
2018-12-08T19:59:52.470Z,99201.88
2018-12-08T20:02:23.608Z,99201.89
2018-12-08T20:04:57.458Z,99170.56
2018-12-08T20:07:28.794Z,99171.92
2018-12-08T20:10:01.260Z,99170.56
2018-12-08T20:12:32.685Z,99167.56
2018-12-08T20:15:07.764Z,99159.11
2018-12-08T20:17:39.564Z,99146.62
2018-12-08T20:20:10.711Z,99146.34
2018-12-08T20:25:14.061Z,99109.83
2018-12-08T20:27:45.707Z,99115.63
2018-12-08T20:30:16.537Z,99101.67
2018-12-08T20:32:47.472Z,99091.62
2018-12-08T20:35:19.055Z,99096.49
2018-12-08T20:37:48.599Z,99076.63
2018-12-08T20:40:19.562Z,99062.27
2018-12-08T20:42:50.642Z,99062.48
2018-12-08T20:45:22.300Z,99057.59
2018-12-08T20:47:54.064Z,99039.67
2018-12-08T20:50:25.113Z,99048.32
2018-12-08T20:52:56.858Z,99043.70
2018-12-08T20:55:28.287Z,99045.39
2018-12-08T20:58:00.071Z,99041.78
2018-12-08T21:00:30.888Z,99026.53
2018-12-08T21:03:02.901Z,99002.59
2018-12-08T21:05:34.034Z,98997.73
2018-12-08T21:08:05.710Z,98991.74
2018-12-08T21:10:39.387Z,98990.64
2018-12-08T21:13:08.833Z,98972.41
2018-12-08T21:15:39.776Z,98971.86
2018-12-08T21:18:11.564Z,98980.74
2018-12-08T21:20:42.638Z,98958.03
2018-12-08T21:23:13.899Z,98948.19
2018-12-08T21:28:16.791Z,98933.25
2018-12-08T21:30:47.688Z,98918.55
2018-12-08T21:33:18.659Z,98911.83
2018-12-08T21:35:49.913Z,98877.98
2018-12-08T21:38:20.820Z,98893.23
2018-12-08T21:40:52.225Z,98879.11
2018-12-08T21:43:22.961Z,98889.73
2018-12-08T21:45:54.053Z,98882.97
2018-12-08T21:48:25.090Z,98879.70
2018-12-08T21:50:56.857Z,98863.94
2018-12-08T21:53:28.590Z,98856.04
2018-12-08T21:55:59.942Z,98857.64
2018-12-08T21:58:33.308Z,98846.50
2018-12-08T22:01:05.099Z,98856.55
2018-12-08T22:03:36.815Z,98829.07
2018-12-08T22:06:08.019Z,98839.76
2018-12-08T22:08:39.715Z,98826.44
2018-12-08T22:11:10.963Z,98823.89
2018-12-08T22:13:41.976Z,98788.76
2018-12-08T22:16:12.868Z,98777.10
2018-12-08T22:18:43.819Z,98774.89
2018-12-08T22:21:14.736Z,98764.78
2018-12-08T22:23:46.496Z,98760.19
2018-12-08T22:26:17.999Z,98747.90
2018-12-08T22:28:48.720Z,98740.00
2018-12-08T22:31:19.859Z,98747.08
2018-12-08T22:33:50.839Z,98731.55
2018-12-08T22:36:21.810Z,98713.03
2018-12-08T22:38:55.318Z,98712.22
2018-12-08T22:41:26.666Z,98695.38
2018-12-08T22:43:58.055Z,98680.13
2018-12-08T22:46:29.334Z,98681.20
2018-12-08T22:49:00.264Z,98674.95
2018-12-08T22:51:31.193Z,98662.14
2018-12-08T22:54:00.831Z,98651.80
2018-12-08T22:56:31.871Z,98644.43
2018-12-08T22:59:02.707Z,98653.42
2018-12-08T23:01:33.827Z,98649.62
2018-12-08T23:04:05.110Z,98645.80
2018-12-08T23:06:36.118Z,98634.10
2018-12-08T23:09:07.387Z,98650.44
2018-12-08T23:11:38.913Z,98644.17
2018-12-08T23:14:10.127Z,98634.10
2018-12-08T23:16:43.943Z,98639.00
2018-12-08T23:19:15.103Z,98634.13
2018-12-08T23:21:46.186Z,98610.95
2018-12-08T23:24:17.841Z,98613.39
2018-12-08T23:26:49.551Z,98605.50
2018-12-08T23:29:20.700Z,98606.87
2018-12-08T23:31:51.597Z,98625.92
2018-12-08T23:34:25.239Z,98706.07
2018-12-08T23:36:59.183Z,98695.17
2018-12-08T23:39:30.308Z,98681.83
2018-12-08T23:42:01.708Z,98674.72
2018-12-08T23:44:33.411Z,98675.83
2018-12-08T23:47:04.338Z,98672.82
2018-12-08T23:49:35.463Z,98667.91
2018-12-08T23:52:06.500Z,98669.81
2018-12-08T23:54:37.452Z,98657.55
2018-12-08T23:57:11.176Z,98645.02
2018-12-08T23:59:42.250Z,98635.75
